Time;durP1;ratioP1;P1;durP2;ratioP2;P2;SDS_P1;SDS_P2;PMS_P1;PMS_P2;Temp;Humidity;BMP_temperature;BMP_pressure;BME280_temperature;BME280_humidity;BME280_pressure;Samples;Min_cycle;Max_cycle;Signal;HPM_P1;HPM_P2
2023/10/10 07:26:00;;;;;;;4.77;2.20;;;16.10;99.90;;;;;;4897332;29;20228;-73
2023/10/10 07:28:28;;;;;;;5.50;2.07;;;16.30;99.90;;;;;;4895410;29;20289;-75
2023/10/10 07:30:55;;;;;;;4.13;2.20;;;16.50;99.90;;;;;;4888697;29;20646;-74
2023/10/10 07:33:26;;;;;;;4.63;2.37;;;16.90;99.90;;;;;;4885217;29;20296;-74
2023/10/10 07:35:54;;;;;;;5.10;2.23;;;17.20;99.90;;;;;;4895701;29;20217;-75
2023/10/10 10:41:07;;;;;;;3.22;1.48;;;22.40;99.90;;;;;;4959908;23;20247;-73
2023/10/10 10:43:38;;;;;;;3.42;1.63;;;22.40;99.90;;;;;;4956426;29;20212;-78
2023/10/10 10:46:12;;;;;;;3.63;1.70;;;22.40;99.90;;;;;;4954151;28;20248;-75
2023/10/10 10:48:47;;;;;;;5.40;1.50;;;22.40;99.90;;;;;;4937868;29;20256;-73
2023/10/10 10:51:25;;;;;;;4.13;1.67;;;22.50;99.90;;;;;;4937724;29;20682;-75
2023/10/10 10:53:56;;;;;;;3.72;1.50;;;22.50;99.90;;;;;;4937960;29;20208;-76
2023/10/10 10:56:38;;;;;;;4.45;2.00;;;22.60;99.90;;;;;;4937778;29;20233;-73
2023/10/10 10:59:12;;;;;;;3.47;2.08;;;22.60;99.90;;;;;;4937390;29;20683;-74
2023/10/10 11:01:51;;;;;;;4.18;1.85;;;22.70;99.90;;;;;;4937595;29;20244;-74
2023/10/10 11:07:04;;;;;;;5.47;2.00;;;22.80;99.90;;;;;;4928995;29;20229;-73
2023/10/10 11:09:34;;;;;;;5.60;1.92;;;22.90;99.90;;;;;;4937821;29;20365;-70
2023/10/10 11:12:04;;;;;;;4.03;1.80;;;23.00;99.90;;;;;;4937219;29;20622;-75
2023/10/10 11:14:31;;;;;;;3.97;2.05;;;23.00;99.90;;;;;;4936964;29;20723;-72
2023/10/10 11:16:59;;;;;;;4.78;2.08;;;23.00;99.90;;;;;;4936919;29;20271;-74
2023/10/10 11:19:39;;;;;;;5.13;1.70;;;22.90;99.90;;;;;;4936831;29;20292;-73
2023/10/10 11:22:12;;;;;;;4.32;1.83;;;23.00;99.90;;;;;;4937150;29;20237;-75
2023/10/10 11:24:39;;;;;;;4.20;1.50;;;22.90;99.90;;;;;;4937147;29;20220;-73
2023/10/10 11:27:13;;;;;;;3.35;1.60;;;22.80;99.90;;;;;;4936932;29;20315;-73
2023/10/10 11:29:44;;;;;;;4.57;1.60;;;22.90;99.90;;;;;;4937035;29;20216;-72
2023/10/10 11:32:13;;;;;;;3.88;1.73;;;22.80;99.90;;;;;;4937059;29;20213;-75
2023/10/10 11:34:46;;;;;;;8.43;2.08;;;22.90;99.90;;;;;;4936989;29;20213;-76
2023/10/10 11:37:20;;;;;;;3.72;1.52;;;23.00;99.90;;;;;;4936947;29;20260;-75
2023/10/10 11:39:48;;;;;;;3.13;1.50;;;22.90;99.90;;;;;;4937026;29;20220;-75
2023/10/10 11:42:33;;;;;;;4.78;1.70;;;22.80;99.90;;;;;;4936447;29;20233;-77
2023/10/10 11:45:04;;;;;;;5.63;1.65;;;23.00;99.90;;;;;;4936857;29;20304;-79
2023/10/10 11:47:42;;;;;;;4.70;1.67;;;23.10;99.90;;;;;;4936768;29;20239;-75
2023/10/10 11:50:11;;;;;;;7.13;1.90;;;23.10;99.90;;;;;;4936277;29;20208;-76
2023/10/10 11:52:51;;;;;;;4.80;1.90;;;23.10;99.90;;;;;;4936545;29;20212;-78
2023/10/10 11:55:20;;;;;;;4.07;1.63;;;23.20;99.90;;;;;;4936213;29;20307;-77
2023/10/10 11:57:49;;;;;;;3.63;1.73;;;23.00;99.90;;;;;;4936385;29;20636;-77
2023/10/10 12:00:22;;;;;;;3.92;1.70;;;23.20;99.90;;;;;;4936548;29;20247;-77
2023/10/10 12:02:50;;;;;;;3.33;1.65;;;23.30;99.90;;;;;;4936534;29;20249;-77
2023/10/10 12:05:47;;;;;;;4.43;1.70;;;23.30;99.90;;;;;;4932128;29;20632;-74
2023/10/10 12:08:15;;;;;;;4.95;1.73;;;23.30;99.90;;;;;;4933724;29;20213;-73
2023/10/10 12:10:52;;;;;;;4.65;1.98;;;23.30;99.90;;;;;;4940838;29;20239;-72
2023/10/10 12:13:33;;;;;;;4.18;1.70;;;23.40;99.90;;;;;;4951919;28;20219;-72
2023/10/10 12:16:00;;;;;;;6.25;2.10;;;23.40;99.90;;;;;;4936033;29;20231;-71
2023/10/10 12:18:30;;;;;;;4.40;1.90;;;23.50;99.90;;;;;;4932269;29;20298;-73
2023/10/10 12:20:58;;;;;;;3.88;1.48;;;23.50;99.90;;;;;;4916657;29;20272;-72
2023/10/10 12:23:25;;;;;;;4.72;1.63;;;23.50;99.90;;;;;;4943402;29;20206;-73
2023/10/10 12:25:54;;;;;;;3.25;1.52;;;23.50;99.90;;;;;;4916623;29;20297;-73
2023/10/10 12:28:22;;;;;;;2.80;1.63;;;23.50;99.90;;;;;;4917009;29;20213;-73
2023/10/10 12:30:49;;;;;;;4.38;1.73;;;23.50;99.90;;;;;;4916629;29;20244;-73
2023/10/10 12:33:16;;;;;;;4.13;1.80;;;23.60;99.90;;;;;;4917097;29;20308;-72
2023/10/10 12:35:47;;;;;;;4.22;1.77;;;23.50;99.90;;;;;;4916789;29;20736;-73
2023/10/10 12:38:15;;;;;;;4.10;1.23;;;23.60;99.90;;;;;;4916975;29;20249;-74
2023/10/10 12:40:43;;;;;;;5.47;1.92;;;23.60;99.90;;;;;;4916515;29;20234;-74
2023/10/10 12:43:11;;;;;;;3.70;1.50;;;23.70;99.90;;;;;;4917633;29;20660;-74
2023/10/10 12:45:39;;;;;;;3.33;1.30;;;23.60;99.90;;;;;;4916873;29;20209;-74
2023/10/10 12:48:13;;;;;;;4.53;1.58;;;23.60;99.90;;;;;;4916697;29;20316;-75
2023/10/10 12:50:41;;;;;;;3.13;1.35;;;23.60;99.90;;;;;;4916768;29;20291;-74
2023/10/10 12:53:09;;;;;;;2.70;1.45;;;23.70;99.90;;;;;;4917136;29;20245;-73
2023/10/10 12:55:46;;;;;;;3.85;1.70;;;23.80;99.90;;;;;;4917221;29;20205;-73
2023/10/10 12:58:16;;;;;;;6.75;1.50;;;23.90;99.90;;;;;;4922290;29;20196;-73
2023/10/10 13:03:30;;;;;;;3.55;1.30;;;23.90;99.90;;;;;;4933905;29;20192;-73
2023/10/10 13:05:59;;;;;;;5.65;2.05;;;23.90;99.90;;;;;;4916470;29;20217;-73
2023/10/10 13:08:38;;;;;;;3.17;1.65;;;24.00;99.90;;;;;;4916704;29;20261;-73
2023/10/10 13:11:12;;;;;;;6.80;1.42;;;24.00;99.90;;;;;;4916202;29;20209;-74
2023/10/10 13:13:45;;;;;;;4.72;1.60;;;24.00;99.90;;;;;;4919261;29;20205;-74
2023/10/10 13:16:27;;;;;;;3.13;1.52;;;24.10;99.90;;;;;;4916394;29;20233;-73
2023/10/10 13:18:56;;;;;;;3.80;1.73;;;24.20;99.90;;;;;;4916203;29;20213;-74
2023/10/10 13:21:23;;;;;;;3.85;1.80;;;24.20;99.40;;;;;;4916217;29;20261;-78
2023/10/10 13:23:51;;;;;;;6.57;2.00;;;24.40;98.80;;;;;;4916528;29;20252;-79
2023/10/10 13:26:20;;;;;;;4.15;1.45;;;24.30;99.30;;;;;;4924238;29;20264;-78
2023/10/10 13:28:47;;;;;;;6.60;1.83;;;24.30;98.60;;;;;;4935978;29;20582;-78
2023/10/10 13:31:17;;;;;;;3.65;1.45;;;24.40;99.10;;;;;;4929453;29;20615;-79
2023/10/10 13:33:45;;;;;;;4.35;1.90;;;24.30;99.20;;;;;;4954346;28;20336;-77
2023/10/10 13:36:15;;;;;;;5.93;1.60;;;24.30;99.30;;;;;;4942524;28;20715;-79
2023/10/10 13:38:47;;;;;;;3.47;1.70;;;24.30;99.10;;;;;;4935517;29;20216;-78
2023/10/10 13:41:16;;;;;;;2.70;1.33;;;24.30;98.90;;;;;;4924737;29;20665;-78
2023/10/10 13:43:44;;;;;;;3.58;1.45;;;24.20;98.60;;;;;;4930574;29;20706;-75
2023/10/10 13:46:11;;;;;;;4.72;1.80;;;24.20;99.10;;;;;;4936079;28;20226;-76
2023/10/10 13:48:40;;;;;;;5.25;1.80;;;24.10;99.90;;;;;;4919747;29;20233;-77
2023/10/10 13:51:08;;;;;;;6.65;1.98;;;24.10;99.10;;;;;;4919898;29;20248;-78
2023/10/10 13:53:37;;;;;;;6.93;1.70;;;24.10;99.00;;;;;;4919817;29;20260;-74
2023/10/10 13:56:04;;;;;;;4.68;1.63;;;24.10;98.00;;;;;;4920816;29;20720;-78
2023/10/10 13:58:32;;;;;;;4.20;1.33;;;24.00;99.00;;;;;;4919674;29;20629;-75
2023/10/10 14:01:14;;;;;;;4.57;1.73;;;24.10;99.50;;;;;;4919474;29;20233;-72
2023/10/10 14:03:46;;;;;;;3.25;1.35;;;24.00;99.40;;;;;;4919346;29;20218;-72
2023/10/10 14:06:16;;;;;;;2.38;1.30;;;24.20;99.90;;;;;;4920665;29;20239;-79
2023/10/10 14:08:44;;;;;;;3.85;1.42;;;24.30;99.90;;;;;;4919506;29;20265;-79
2023/10/10 14:11:13;;;;;;;5.80;1.65;;;24.30;99.90;;;;;;4918981;29;20293;-76
2023/10/10 14:13:40;;;;;;;4.28;1.77;;;24.40;99.90;;;;;;4919268;29;20213;-78
2023/10/10 14:16:06;;;;;;;2.95;1.40;;;24.40;99.80;;;;;;4920958;29;20312;-78
2023/10/10 14:18:42;;;;;;;4.00;1.25;;;24.40;99.90;;;;;;4919062;29;20248;-78
2023/10/10 14:21:12;;;;;;;4.20;1.90;;;24.40;99.90;;;;;;4927010;29;20205;-79
2023/10/10 14:23:39;;;;;;;4.40;1.40;;;24.30;99.90;;;;;;4928880;29;20259;-80
2023/10/10 14:26:13;;;;;;;3.38;1.42;;;24.30;99.90;;;;;;4930202;29;20637;-78
2023/10/10 14:28:41;;;;;;;4.88;1.50;;;24.30;99.90;;;;;;4918980;29;20691;-79
2023/10/10 14:31:12;;;;;;;4.32;1.40;;;24.40;99.90;;;;;;4918835;29;20210;-79
2023/10/10 14:33:40;;;;;;;4.57;1.95;;;24.50;99.90;;;;;;4919014;29;20217;-79
2023/10/10 14:36:12;;;;;;;4.43;1.23;;;24.60;99.90;;;;;;4921917;29;20235;-74
2023/10/10 14:38:39;;;;;;;4.63;1.38;;;24.70;99.90;;;;;;4918952;29;20209;-79
2023/10/10 14:41:07;;;;;;;5.43;1.55;;;24.70;99.90;;;;;;4918562;29;20218;-79
2023/10/10 14:43:34;;;;;;;3.08;1.50;;;24.50;99.90;;;;;;4918908;29;20248;-79
2023/10/10 14:46:02;;;;;;;3.38;1.38;;;24.50;99.90;;;;;;4921979;29;20249;-80
2023/10/10 14:48:30;;;;;;;3.45;1.38;;;24.40;99.90;;;;;;4918836;29;20209;-79
2023/10/10 14:50:58;;;;;;;6.32;1.65;;;24.40;99.90;;;;;;4925170;29;20220;-79
2023/10/10 14:53:27;;;;;;;4.25;1.60;;;24.40;99.90;;;;;;4917489;29;20210;-76
2023/10/10 14:55:54;;;;;;;2.28;1.02;;;24.30;99.90;;;;;;4922561;29;20217;-73
2023/10/10 14:58:22;;;;;;;3.05;1.55;;;24.10;99.90;;;;;;4918768;29;20241;-80
2023/10/10 15:00:52;;;;;;;3.63;1.27;;;24.00;99.90;;;;;;4918364;29;20206;-72
2023/10/10 15:03:19;;;;;;;4.28;1.20;;;24.00;99.90;;;;;;4917975;29;20335;-79
2023/10/10 15:05:51;;;;;;;5.43;1.60;;;24.10;99.90;;;;;;4922469;29;20208;-79
2023/10/10 15:08:19;;;;;;;3.25;1.35;;;24.10;99.90;;;;;;4918270;29;20214;-76
2023/10/10 15:10:51;;;;;;;5.10;1.70;;;24.10;99.90;;;;;;4917633;29;20202;-72
2023/10/10 15:13:18;;;;;;;6.30;1.67;;;24.00;99.90;;;;;;4917684;29;20214;-80
2023/10/10 15:15:48;;;;;;;4.32;1.50;;;24.00;99.90;;;;;;4922909;29;20268;-75
2023/10/10 15:18:16;;;;;;;4.60;1.90;;;24.00;99.90;;;;;;4936628;29;20691;-79
2023/10/10 15:20:46;;;;;;;2.90;1.48;;;24.00;99.90;;;;;;4942344;29;20243;-77
2023/10/10 15:23:18;;;;;;;4.45;1.92;;;24.00;99.90;;;;;;4917926;29;20237;-79
2023/10/10 15:25:53;;;;;;;4.13;1.20;;;24.00;99.90;;;;;;4923367;29;20291;-79
2023/10/10 15:28:20;;;;;;;4.35;1.40;;;24.00;99.90;;;;;;4917822;29;20219;-75
2023/10/10 15:30:47;;;;;;;4.68;1.52;;;23.90;99.90;;;;;;4917760;29;20240;-80
2023/10/10 15:33:17;;;;;;;3.42;1.48;;;23.80;99.90;;;;;;4918282;29;20269;-76
2023/10/10 15:35:47;;;;;;;3.58;1.65;;;23.80;99.90;;;;;;4920769;29;20302;-73
2023/10/10 15:38:14;;;;;;;6.70;1.67;;;23.70;99.90;;;;;;4932215;29;20484;-76
2023/10/10 15:40:43;;;;;;;3.13;1.23;;;23.70;99.90;;;;;;4934364;29;20224;-80
2023/10/10 15:43:12;;;;;;;4.97;1.40;;;23.60;99.90;;;;;;4931271;29;20240;-74
2023/10/10 15:45:43;;;;;;;4.70;1.40;;;23.40;99.90;;;;;;4939533;28;20739;-73
2023/10/10 15:48:21;;;;;;;2.75;1.48;;;23.30;99.90;;;;;;4918617;29;20263;-73
2023/10/10 15:50:51;;;;;;;4.45;1.30;;;23.10;99.90;;;;;;4936998;29;20207;-77
2023/10/10 15:53:23;;;;;;;2.38;1.33;;;23.10;99.90;;;;;;4950437;29;20215;-71
2023/10/10 15:56:08;;;;;;;3.00;1.10;;;23.00;99.90;;;;;;4944672;28;20688;-72
2023/10/10 15:58:42;;;;;;;4.18;1.63;;;22.90;99.90;;;;;;4931074;29;20201;-72
2023/10/10 16:01:14;;;;;;;4.53;1.55;;;22.70;99.90;;;;;;4931468;29;20208;-68
2023/10/10 16:03:44;;;;;;;3.55;1.45;;;22.80;99.90;;;;;;4914160;29;20329;-69
2023/10/10 16:06:12;;;;;;;5.20;1.35;;;22.90;99.90;;;;;;4921376;29;20289;-68
2023/10/10 16:08:38;;;;;;;2.90;1.30;;;22.90;99.90;;;;;;4922582;29;20236;-71
2023/10/10 16:11:06;;;;;;;3.65;1.23;;;22.70;99.90;;;;;;4931868;29;20255;-70
2023/10/10 16:13:35;;;;;;;2.85;1.40;;;22.60;99.90;;;;;;4915063;29;20519;-70
2023/10/10 16:16:07;;;;;;;3.88;1.50;;;22.50;99.90;;;;;;4922146;29;20687;-70
2023/10/10 16:18:35;;;;;;;5.68;1.80;;;22.50;99.90;;;;;;4921084;29;20207;-70
2023/10/10 16:21:04;;;;;;;5.07;1.63;;;22.30;99.90;;;;;;4932709;29;20299;-70
2023/10/10 16:23:32;;;;;;;3.63;1.35;;;22.20;99.90;;;;;;4951294;29;20603;-74
2023/10/10 16:25:59;;;;;;;2.15;1.20;;;22.20;99.90;;;;;;4943839;28;20211;-71
2023/10/10 16:28:27;;;;;;;3.95;1.55;;;22.20;99.90;;;;;;4921643;29;20588;-69
2023/10/10 16:30:55;;;;;;;1.95;1.20;;;22.10;99.90;;;;;;4933340;29;20303;-72
2023/10/10 16:33:24;;;;;;;4.28;1.40;;;22.00;99.90;;;;;;4935072;29;20208;-71
2023/10/10 16:35:53;;;;;;;4.93;1.70;;;22.00;99.90;;;;;;4941710;28;20288;-70
2023/10/10 16:38:23;;;;;;;2.22;0.90;;;21.80;99.90;;;;;;4920082;29;20556;-70
2023/10/10 16:40:51;;;;;;;6.13;1.77;;;21.70;99.90;;;;;;4933341;29;20228;-72
2023/10/10 16:43:24;;;;;;;3.85;1.42;;;21.60;99.90;;;;;;4915585;29;20368;-72
2023/10/10 16:45:51;;;;;;;3.20;1.63;;;21.40;99.90;;;;;;4922145;29;20565;-71
2023/10/10 16:48:18;;;;;;;4.40;1.60;;;21.40;99.90;;;;;;4934476;29;20291;-72
2023/10/10 16:50:46;;;;;;;2.88;1.23;;;21.20;99.90;;;;;;4929602;29;20316;-72
2023/10/10 16:53:13;;;;;;;4.63;2.28;;;21.30;99.90;;;;;;4919406;29;20592;-72
2023/10/10 16:55:41;;;;;;;5.15;1.77;;;21.20;99.90;;;;;;4926411;29;20236;-72
2023/10/10 16:58:14;;;;;;;3.08;1.33;;;21.10;99.90;;;;;;4925786;29;20726;-73
2023/10/10 17:00:42;;;;;;;4.68;1.58;;;21.10;99.90;;;;;;4928053;29;20209;-72
2023/10/10 17:03:11;;;;;;;2.58;1.45;;;21.00;99.90;;;;;;4927032;29;20279;-73
2023/10/10 17:05:40;;;;;;;6.45;3.33;;;21.00;99.90;;;;;;4928581;29;20221;-72
2023/10/10 17:08:10;;;;;;;4.53;1.98;;;20.90;99.90;;;;;;4934914;29;20406;-72
2023/10/10 17:10:38;;;;;;;4.75;1.52;;;20.90;99.90;;;;;;4922577;29;20252;-72
